Terminal Aerodrome Forecast
Issued by NWS

Home | Current Version | Previous Version | Text Only | Print | Product List | Glossary On
Versions: 1 2 3 4 5 6 7 8 9 10 11 12 13 14 15 16 17 18
000
FTUS46 KHNX 220540
TAFBFL
TAF
KBFL 220540Z 2206/2306 34005KT P6SM BKN150
     FM220900 VRB03KT 4SM BR BKN150
     FM221900 32006KT P6SM BKN050 OVC100=

USA.gov is the U.S. government's official web portal to all federal, state and local government web resources and services.